sensor_id;sensor_type;location;lat;lon;timestamp;pressure;altitude;pressure_sealevel;temperature;humidity
59939;BME280;45801;51.810;19.444;2022-07-29T00:01:14;99585.20;;;16.54;59.62
59939;BME280;45801;51.810;19.444;2022-07-29T00:03:41;99586.77;;;16.54;59.68
59939;BME280;45801;51.810;19.444;2022-07-29T00:06:07;99589.56;;;16.52;59.71
59939;BME280;45801;51.810;19.444;2022-07-29T00:08:34;99589.54;;;16.51;59.69
59939;BME280;45801;51.810;19.444;2022-07-29T00:11:00;99583.48;;;16.50;59.58
59939;BME280;45801;51.810;19.444;2022-07-29T00:13:26;99587.01;;;16.49;59.75
59939;BME280;45801;51.810;19.444;2022-07-29T00:15:53;99586.96;;;16.47;59.79
59939;BME280;45801;51.810;19.444;2022-07-29T00:18:19;99587.11;;;16.46;59.95
59939;BME280;45801;51.810;19.444;2022-07-29T00:20:46;99587.60;;;16.44;59.99
59939;BME280;45801;51.810;19.444;2022-07-29T00:23:12;99587.92;;;16.42;59.96
59939;BME280;45801;51.810;19.444;2022-07-29T00:25:38;99583.08;;;16.40;59.73
59939;BME280;45801;51.810;19.444;2022-07-29T00:28:05;99587.98;;;16.38;60.16
59939;BME280;45801;51.810;19.444;2022-07-29T00:30:31;99594.85;;;16.37;59.98
59939;BME280;45801;51.810;19.444;2022-07-29T00:32:58;99595.88;;;16.36;60.14
59939;BME280;45801;51.810;19.444;2022-07-29T00:35:24;99596.20;;;16.34;59.94
59939;BME280;45801;51.810;19.444;2022-07-29T00:38:11;99593.67;;;16.33;59.84
59939;BME280;45801;51.810;19.444;2022-07-29T00:40:38;99594.51;;;16.31;59.63
59939;BME280;45801;51.810;19.444;2022-07-29T00:43:04;99594.85;;;16.31;59.98
59939;BME280;45801;51.810;19.444;2022-07-29T00:45:31;99593.39;;;16.29;60.09
59939;BME280;45801;51.810;19.444;2022-07-29T00:47:57;99597.43;;;16.28;60.19
59939;BME280;45801;51.810;19.444;2022-07-29T00:50:24;99602.52;;;16.26;60.35
59939;BME280;45801;51.810;19.444;2022-07-29T00:52:52;99603.51;;;16.24;60.52
59939;BME280;45801;51.810;19.444;2022-07-29T00:55:19;99602.42;;;16.22;60.27
59939;BME280;45801;51.810;19.444;2022-07-29T00:57:45;99601.14;;;16.20;60.13
59939;BME280;45801;51.810;19.444;2022-07-29T01:00:16;99601.08;;;16.18;60.28
59939;BME280;45801;51.810;19.444;2022-07-29T01:02:44;99600.48;;;16.16;60.37
59939;BME280;45801;51.810;19.444;2022-07-29T01:05:11;99596.54;;;16.14;60.41
59939;BME280;45801;51.810;19.444;2022-07-29T01:07:39;99594.51;;;16.11;60.41
59939;BME280;45801;51.810;19.444;2022-07-29T01:10:08;99595.34;;;16.08;60.67
59939;BME280;45801;51.810;19.444;2022-07-29T01:12:37;99598.10;;;16.06;60.71
59939;BME280;45801;51.810;19.444;2022-07-29T01:15:05;99598.91;;;16.04;60.86
59939;BME280;45801;51.810;19.444;2022-07-29T01:20:25;99588.20;;;16.00;60.82
59939;BME280;45801;51.810;19.444;2022-07-29T01:23:14;99590.25;;;15.97;61.00
59939;BME280;45801;51.810;19.444;2022-07-29T01:26:09;99591.42;;;15.95;61.19
59939;BME280;45801;51.810;19.444;2022-07-29T01:32:10;99583.70;;;15.90;61.52
59939;BME280;45801;51.810;19.444;2022-07-29T01:35:02;99584.17;;;15.88;61.38
59939;BME280;45801;51.810;19.444;2022-07-29T01:37:39;99585.71;;;15.86;61.53
59939;BME280;45801;51.810;19.444;2022-07-29T01:42:49;99580.84;;;15.82;61.48
59939;BME280;45801;51.810;19.444;2022-07-29T01:45:21;99577.40;;;15.79;61.90
59939;BME280;45801;51.810;19.444;2022-07-29T01:47:56;99578.91;;;15.77;61.52
59939;BME280;45801;51.810;19.444;2022-07-29T01:50:39;99576.18;;;15.75;61.35
59939;BME280;45801;51.810;19.444;2022-07-29T01:53:09;99580.52;;;15.72;61.38
59939;BME280;45801;51.810;19.444;2022-07-29T01:55:40;99578.71;;;15.70;61.17
59939;BME280;45801;51.810;19.444;2022-07-29T01:58:09;99581.50;;;15.69;61.18
59939;BME280;45801;51.810;19.444;2022-07-29T02:00:37;99582.14;;;15.67;61.20
59939;BME280;45801;51.810;19.444;2022-07-29T02:03:09;99583.02;;;15.67;61.04
59939;BME280;45801;51.810;19.444;2022-07-29T02:05:39;99581.92;;;15.65;61.10
59939;BME280;45801;51.810;19.444;2022-07-29T02:08:07;99582.94;;;15.64;61.13
59939;BME280;45801;51.810;19.444;2022-07-29T02:10:35;99584.14;;;15.62;61.38
59939;BME280;45801;51.810;19.444;2022-07-29T02:13:05;99582.65;;;15.60;61.79
59939;BME280;45801;51.810;19.444;2022-07-29T02:15:34;99578.20;;;15.59;61.60
59939;BME280;45801;51.810;19.444;2022-07-29T02:18:06;99577.80;;;15.57;61.77
59939;BME280;45801;51.810;19.444;2022-07-29T02:20:34;99577.60;;;15.56;61.97
59939;BME280;45801;51.810;19.444;2022-07-29T02:23:02;99577.89;;;15.54;61.91
59939;BME280;45801;51.810;19.444;2022-07-29T02:25:30;99576.55;;;15.50;62.22
59939;BME280;45801;51.810;19.444;2022-07-29T02:27:59;99572.06;;;15.48;62.55
59939;BME280;45801;51.810;19.444;2022-07-29T02:30:27;99570.19;;;15.44;62.62
59939;BME280;45801;51.810;19.444;2022-07-29T02:32:55;99565.89;;;15.42;62.65
59939;BME280;45801;51.810;19.444;2022-07-29T02:35:22;99563.19;;;15.40;62.59
59939;BME280;45801;51.810;19.444;2022-07-29T02:37:50;99563.65;;;15.38;62.62
59939;BME280;45801;51.810;19.444;2022-07-29T02:40:38;99564.71;;;15.38;62.75
59939;BME280;45801;51.810;19.444;2022-07-29T02:43:07;99565.80;;;15.39;62.79
59939;BME280;45801;51.810;19.444;2022-07-29T02:45:35;99562.83;;;15.40;63.08
59939;BME280;45801;51.810;19.444;2022-07-29T02:48:06;99558.64;;;15.41;63.11
59939;BME280;45801;51.810;19.444;2022-07-29T02:50:40;99555.52;;;15.43;62.98
59939;BME280;45801;51.810;19.444;2022-07-29T02:53:22;99555.35;;;15.44;62.84
59939;BME280;45801;51.810;19.444;2022-07-29T02:55:56;99553.39;;;15.43;62.75
59939;BME280;45801;51.810;19.444;2022-07-29T02:58:34;99551.11;;;15.43;62.87
59939;BME280;45801;51.810;19.444;2022-07-29T03:01:08;99555.92;;;15.45;62.82
59939;BME280;45801;51.810;19.444;2022-07-29T03:03:38;99553.60;;;15.56;62.85
59939;BME280;45801;51.810;19.444;2022-07-29T03:06:07;99556.30;;;15.65;62.25
59939;BME280;45801;51.810;19.444;2022-07-29T03:08:35;99561.98;;;15.66;62.12
59939;BME280;45801;51.810;19.444;2022-07-29T03:11:03;99557.52;;;15.64;62.12
59939;BME280;45801;51.810;19.444;2022-07-29T03:13:31;99557.11;;;15.62;62.13
59939;BME280;45801;51.810;19.444;2022-07-29T03:15:58;99555.15;;;15.62;62.20
59939;BME280;45801;51.810;19.444;2022-07-29T03:18:25;99553.36;;;15.67;62.15
59939;BME280;45801;51.810;19.444;2022-07-29T03:20:52;99553.77;;;15.68;61.80
59939;BME280;45801;51.810;19.444;2022-07-29T03:23:19;99547.70;;;15.73;62.04
59939;BME280;45801;51.810;19.444;2022-07-29T03:25:47;99542.95;;;15.86;61.86
59939;BME280;45801;51.810;19.444;2022-07-29T03:28:14;99546.82;;;15.98;61.53
59939;BME280;45801;51.810;19.444;2022-07-29T03:30:40;99551.80;;;16.06;62.20
59939;BME280;45801;51.810;19.444;2022-07-29T03:33:07;99550.66;;;16.24;62.22
59939;BME280;45801;51.810;19.444;2022-07-29T03:35:33;99548.48;;;16.42;62.23
59939;BME280;45801;51.810;19.444;2022-07-29T03:37:59;99550.23;;;16.63;62.33
59939;BME280;45801;51.810;19.444;2022-07-29T03:40:32;99548.75;;;16.83;62.13
59939;BME280;45801;51.810;19.444;2022-07-29T03:43:00;99548.83;;;17.00;61.58
59939;BME280;45801;51.810;19.444;2022-07-29T03:45:28;99550.27;;;17.09;60.47
59939;BME280;45801;51.810;19.444;2022-07-29T03:48:01;99557.16;;;17.01;59.88
59939;BME280;45801;51.810;19.444;2022-07-29T03:50:30;99560.35;;;16.87;59.80
59939;BME280;45801;51.810;19.444;2022-07-29T03:52:59;99560.88;;;16.72;59.81
59939;BME280;45801;51.810;19.444;2022-07-29T03:55:26;99563.05;;;16.60;60.16
59939;BME280;45801;51.810;19.444;2022-07-29T03:57:55;99566.33;;;16.49;60.34
59939;BME280;45801;51.810;19.444;2022-07-29T04:00:24;99566.82;;;16.40;60.67
59939;BME280;45801;51.810;19.444;2022-07-29T04:02:51;99567.17;;;16.33;60.86
59939;BME280;45801;51.810;19.444;2022-07-29T04:05:18;99567.36;;;16.27;61.28
59939;BME280;45801;51.810;19.444;2022-07-29T04:07:46;99570.78;;;16.23;61.37
59939;BME280;45801;51.810;19.444;2022-07-29T04:10:13;99573.70;;;16.19;61.41
59939;BME280;45801;51.810;19.444;2022-07-29T04:12:42;99575.91;;;16.16;61.66
59939;BME280;45801;51.810;19.444;2022-07-29T04:15:09;99583.66;;;16.15;61.91
59939;BME280;45801;51.810;19.444;2022-07-29T04:17:35;99582.02;;;16.13;62.39
59939;BME280;45801;51.810;19.444;2022-07-29T04:20:03;99583.23;;;16.12;62.11
59939;BME280;45801;51.810;19.444;2022-07-29T04:22:29;99583.21;;;16.11;62.55
59939;BME280;45801;51.810;19.444;2022-07-29T04:24:56;99580.52;;;16.10;62.55
59939;BME280;45801;51.810;19.444;2022-07-29T04:27:22;99580.89;;;16.11;62.49
59939;BME280;45801;51.810;19.444;2022-07-29T04:29:49;99576.30;;;16.11;62.54
59939;BME280;45801;51.810;19.444;2022-07-29T04:32:15;99579.18;;;16.13;62.40
59939;BME280;45801;51.810;19.444;2022-07-29T04:34:42;99577.08;;;16.14;63.02
59939;BME280;45801;51.810;19.444;2022-07-29T04:37:08;99579.75;;;16.14;63.01
59939;BME280;45801;51.810;19.444;2022-07-29T04:39:34;99580.84;;;16.15;62.87
59939;BME280;45801;51.810;19.444;2022-07-29T04:42:01;99579.34;;;16.18;62.92
59939;BME280;45801;51.810;19.444;2022-07-29T04:44:27;99581.02;;;16.22;63.00
59939;BME280;45801;51.810;19.444;2022-07-29T04:46:55;99579.75;;;16.28;63.14
59939;BME280;45801;51.810;19.444;2022-07-29T04:49:21;99577.08;;;16.34;63.27
59939;BME280;45801;51.810;19.444;2022-07-29T04:51:47;99581.11;;;16.39;63.19
59939;BME280;45801;51.810;19.444;2022-07-29T04:54:14;99583.02;;;16.45;62.97
59939;BME280;45801;51.810;19.444;2022-07-29T04:56:40;99583.46;;;16.49;62.55
59939;BME280;45801;51.810;19.444;2022-07-29T04:59:07;99577.91;;;16.53;62.60
59939;BME280;45801;51.810;19.444;2022-07-29T05:01:34;99576.09;;;16.58;62.28
59939;BME280;45801;51.810;19.444;2022-07-29T05:04:00;99574.30;;;16.64;62.66
59939;BME280;45801;51.810;19.444;2022-07-29T05:06:27;99579.90;;;16.69;62.79
59939;BME280;45801;51.810;19.444;2022-07-29T05:08:53;99582.85;;;16.74;62.21
59939;BME280;45801;51.810;19.444;2022-07-29T05:11:20;99579.61;;;16.79;62.11
59939;BME280;45801;51.810;19.444;2022-07-29T05:13:46;99581.36;;;16.86;62.21
59939;BME280;45801;51.810;19.444;2022-07-29T05:16:13;99582.39;;;16.90;61.84
59939;BME280;45801;51.810;19.444;2022-07-29T05:18:40;99580.38;;;16.95;61.99
59939;BME280;45801;51.810;19.444;2022-07-29T05:21:06;99581.02;;;17.00;61.71
59939;BME280;45801;51.810;19.444;2022-07-29T05:23:32;99579.17;;;17.04;61.95
59939;BME280;45801;51.810;19.444;2022-07-29T05:25:59;99576.08;;;17.08;61.91
59939;BME280;45801;51.810;19.444;2022-07-29T05:28:25;99577.58;;;17.12;61.35
59939;BME280;45801;51.810;19.444;2022-07-29T05:30:52;99578.23;;;17.17;61.16
59939;BME280;45801;51.810;19.444;2022-07-29T05:33:18;99573.35;;;17.22;60.94
59939;BME280;45801;51.810;19.444;2022-07-29T05:35:50;99575.25;;;17.27;60.68
59939;BME280;45801;51.810;19.444;2022-07-29T05:38:17;99579.61;;;17.32;60.97
59939;BME280;45801;51.810;19.444;2022-07-29T05:40:43;99584.50;;;17.37;60.53
59939;BME280;45801;51.810;19.444;2022-07-29T05:43:09;99581.61;;;17.42;60.96
59939;BME280;45801;51.810;19.444;2022-07-29T05:45:36;99575.70;;;17.47;60.93
59939;BME280;45801;51.810;19.444;2022-07-29T05:48:04;99577.04;;;17.53;60.43
59939;BME280;45801;51.810;19.444;2022-07-29T05:50:32;99568.64;;;17.58;59.94
59939;BME280;45801;51.810;19.444;2022-07-29T05:52:58;99570.84;;;17.62;59.66
59939;BME280;45801;51.810;19.444;2022-07-29T05:55:24;99572.73;;;17.67;59.65
59939;BME280;45801;51.810;19.444;2022-07-29T05:57:52;99573.86;;;17.71;59.42
59939;BME280;45801;51.810;19.444;2022-07-29T06:00:18;99574.14;;;17.76;59.09
59939;BME280;45801;51.810;19.444;2022-07-29T06:02:45;99575.64;;;17.81;59.07
59939;BME280;45801;51.810;19.444;2022-07-29T06:05:11;99579.66;;;17.86;59.00
59939;BME280;45801;51.810;19.444;2022-07-29T06:07:38;99583.20;;;17.94;59.30
59939;BME280;45801;51.810;19.444;2022-07-29T06:10:04;99580.85;;;18.00;59.66
59939;BME280;45801;51.810;19.444;2022-07-29T06:12:32;99583.98;;;18.07;59.10
59939;BME280;45801;51.810;19.444;2022-07-29T06:14:59;99582.31;;;18.13;58.65
59939;BME280;45801;51.810;19.444;2022-07-29T06:17:25;99585.95;;;18.17;58.11
59939;BME280;45801;51.810;19.444;2022-07-29T06:19:52;99585.48;;;18.22;58.15
59939;BME280;45801;51.810;19.444;2022-07-29T06:22:18;99582.58;;;18.27;58.22
59939;BME280;45801;51.810;19.444;2022-07-29T06:24:44;99583.22;;;18.33;58.22
59939;BME280;45801;51.810;19.444;2022-07-29T06:27:11;99578.92;;;18.41;58.43
59939;BME280;45801;51.810;19.444;2022-07-29T06:29:38;99579.57;;;18.48;58.40
59939;BME280;45801;51.810;19.444;2022-07-29T06:32:05;99578.11;;;18.55;57.98
59939;BME280;45801;51.810;19.444;2022-07-29T06:34:31;99575.01;;;18.62;57.35
59939;BME280;45801;51.810;19.444;2022-07-29T06:36:57;99574.59;;;18.69;57.42
59939;BME280;45801;51.810;19.444;2022-07-29T06:39:24;99572.40;;;18.76;57.41
59939;BME280;45801;51.810;19.444;2022-07-29T06:41:50;99572.14;;;18.82;57.39
59939;BME280;45801;51.810;19.444;2022-07-29T06:44:18;99575.13;;;18.90;57.51
59939;BME280;45801;51.810;19.444;2022-07-29T06:46:44;99576.13;;;18.97;57.21
59939;BME280;45801;51.810;19.444;2022-07-29T06:49:13;99576.03;;;19.04;57.10
59939;BME280;45801;51.810;19.444;2022-07-29T06:51:40;99575.27;;;19.11;56.50
59939;BME280;45801;51.810;19.444;2022-07-29T06:54:06;99576.08;;;19.19;56.80
59939;BME280;45801;51.810;19.444;2022-07-29T06:56:34;99578.11;;;19.24;55.57
59939;BME280;45801;51.810;19.444;2022-07-29T06:59:04;99577.86;;;19.32;56.80
59939;BME280;45801;51.810;19.444;2022-07-29T07:01:30;99580.82;;;19.41;56.54
59939;BME280;45801;51.810;19.444;2022-07-29T07:03:57;99580.75;;;19.49;56.64
59939;BME280;45801;51.810;19.444;2022-07-29T07:06:23;99584.23;;;19.58;56.99
59939;BME280;45801;51.810;19.444;2022-07-29T07:08:49;99581.47;;;19.64;56.54
59939;BME280;45801;51.810;19.444;2022-07-29T07:11:16;99577.63;;;19.71;56.06
59939;BME280;45801;51.810;19.444;2022-07-29T07:13:42;99571.33;;;19.77;55.29
59939;BME280;45801;51.810;19.444;2022-07-29T07:16:09;99575.88;;;19.84;54.43
59939;BME280;45801;51.810;19.444;2022-07-29T07:18:35;99572.89;;;19.87;54.66
59939;BME280;45801;51.810;19.444;2022-07-29T07:21:02;99572.05;;;19.93;54.72
59939;BME280;45801;51.810;19.444;2022-07-29T07:23:28;99572.67;;;20.00;55.20
59939;BME280;45801;51.810;19.444;2022-07-29T07:25:55;99572.56;;;20.07;54.63
59939;BME280;45801;51.810;19.444;2022-07-29T07:28:21;99575.46;;;20.12;54.17
59939;BME280;45801;51.810;19.444;2022-07-29T07:30:48;99573.55;;;20.17;53.70
59939;BME280;45801;51.810;19.444;2022-07-29T07:33:14;99580.72;;;20.22;52.94
59939;BME280;45801;51.810;19.444;2022-07-29T07:35:41;99576.88;;;20.28;53.78
59939;BME280;45801;51.810;19.444;2022-07-29T07:38:08;99576.06;;;20.37;54.25
59939;BME280;45801;51.810;19.444;2022-07-29T07:40:34;99576.14;;;20.47;54.00
59939;BME280;45801;51.810;19.444;2022-07-29T07:43:01;99570.89;;;20.56;53.30
59939;BME280;45801;51.810;19.444;2022-07-29T07:45:28;99567.61;;;20.66;52.98
59939;BME280;45801;51.810;19.444;2022-07-29T07:47:54;99566.27;;;20.76;52.88
59939;BME280;45801;51.810;19.444;2022-07-29T07:50:21;99558.52;;;20.86;53.53
59939;BME280;45801;51.810;19.444;2022-07-29T07:52:52;99554.48;;;20.97;53.38
59939;BME280;45801;51.810;19.444;2022-07-29T07:55:21;99555.82;;;21.10;53.10
59939;BME280;45801;51.810;19.444;2022-07-29T07:57:47;99556.58;;;21.18;52.30
59939;BME280;45801;51.810;19.444;2022-07-29T08:00:15;99556.23;;;21.24;52.76
59939;BME280;45801;51.810;19.444;2022-07-29T08:02:42;99560.55;;;21.30;52.79
59939;BME280;45801;51.810;19.444;2022-07-29T08:05:11;99561.30;;;21.37;51.56
59939;BME280;45801;51.810;19.444;2022-07-29T08:07:46;99560.08;;;21.42;51.97
59939;BME280;45801;51.810;19.444;2022-07-29T08:10:18;99556.03;;;21.49;51.21
59939;BME280;45801;51.810;19.444;2022-07-29T08:13:06;99549.66;;;21.57;50.77
59939;BME280;45801;51.810;19.444;2022-07-29T08:15:34;99547.36;;;21.62;50.80
59939;BME280;45801;51.810;19.444;2022-07-29T08:18:01;99551.83;;;21.66;50.00
59939;BME280;45801;51.810;19.444;2022-07-29T08:20:27;99550.59;;;21.67;48.75
59939;BME280;45801;51.810;19.444;2022-07-29T08:22:54;99551.48;;;21.65;48.79
59939;BME280;45801;51.810;19.444;2022-07-29T08:25:20;99555.04;;;21.65;50.29
59939;BME280;45801;51.810;19.444;2022-07-29T08:27:47;99550.23;;;21.66;50.59
59939;BME280;45801;51.810;19.444;2022-07-29T08:30:15;99552.37;;;21.66;49.96
59939;BME280;45801;51.810;19.444;2022-07-29T08:32:41;99553.79;;;21.65;50.10
59939;BME280;45801;51.810;19.444;2022-07-29T08:35:08;99553.08;;;21.64;50.48
59939;BME280;45801;51.810;19.444;2022-07-29T08:37:34;99553.60;;;21.61;49.76
59939;BME280;45801;51.810;19.444;2022-07-29T08:40:01;99556.95;;;21.58;48.96
59939;BME280;45801;51.810;19.444;2022-07-29T08:42:27;99555.73;;;21.58;49.10
59939;BME280;45801;51.810;19.444;2022-07-29T08:44:54;99553.59;;;21.60;49.98
59939;BME280;45801;51.810;19.444;2022-07-29T08:47:21;99551.28;;;21.64;49.59
59939;BME280;45801;51.810;19.444;2022-07-29T08:49:48;99555.59;;;21.70;49.10
59939;BME280;45801;51.810;19.444;2022-07-29T08:52:15;99554.89;;;21.78;48.01
59939;BME280;45801;51.810;19.444;2022-07-29T08:54:43;99556.89;;;21.85;48.59
59939;BME280;45801;51.810;19.444;2022-07-29T08:57:12;99558.15;;;21.93;49.15
59939;BME280;45801;51.810;19.444;2022-07-29T08:59:42;99560.16;;;22.03;49.11
59939;BME280;45801;51.810;19.444;2022-07-29T09:02:22;99559.79;;;22.12;49.07
59939;BME280;45801;51.810;19.444;2022-07-29T09:04:49;99560.70;;;22.20;49.08
59939;BME280;45801;51.810;19.444;2022-07-29T09:07:17;99560.17;;;22.27;48.07
59939;BME280;45801;51.810;19.444;2022-07-29T09:09:44;99554.85;;;22.32;47.99
59939;BME280;45801;51.810;19.444;2022-07-29T09:12:11;99567.71;;;22.35;47.91
59939;BME280;45801;51.810;19.444;2022-07-29T09:14:38;99564.86;;;22.37;47.84
59939;BME280;45801;51.810;19.444;2022-07-29T09:17:06;99568.26;;;22.38;47.56
59939;BME280;45801;51.810;19.444;2022-07-29T09:19:36;99570.77;;;22.40;47.70
59939;BME280;45801;51.810;19.444;2022-07-29T09:22:05;99562.36;;;22.44;46.63
59939;BME280;45801;51.810;19.444;2022-07-29T09:24:41;99555.76;;;22.47;47.25
59939;BME280;45801;51.810;19.444;2022-07-29T09:29:46;99555.05;;;22.58;47.48
59939;BME280;45801;51.810;19.444;2022-07-29T09:32:13;99554.87;;;22.64;47.08
59939;BME280;45801;51.810;19.444;2022-07-29T09:34:39;99556.48;;;22.70;46.95
59939;BME280;45801;51.810;19.444;2022-07-29T09:37:06;99552.91;;;22.76;47.32
59939;BME280;45801;51.810;19.444;2022-07-29T09:39:37;99550.02;;;22.82;47.31
59939;BME280;45801;51.810;19.444;2022-07-29T09:42:10;99546.45;;;22.87;45.66
59939;BME280;45801;51.810;19.444;2022-07-29T09:44:48;99540.36;;;22.88;46.41
59939;BME280;45801;51.810;19.444;2022-07-29T09:47:17;99539.48;;;22.86;44.85
59939;BME280;45801;51.810;19.444;2022-07-29T09:49:58;99535.38;;;22.85;44.63
59939;BME280;45801;51.810;19.444;2022-07-29T09:52:29;99535.38;;;22.82;44.49
59939;BME280;45801;51.810;19.444;2022-07-29T09:55:06;99526.30;;;22.76;44.20
59939;BME280;45801;51.810;19.444;2022-07-29T09:57:36;99525.23;;;22.75;45.89
59939;BME280;45801;51.810;19.444;2022-07-29T10:02:34;99523.79;;;22.77;45.39
59939;BME280;45801;51.810;19.444;2022-07-29T10:05:04;99520.22;;;22.79;44.78
59939;BME280;45801;51.810;19.444;2022-07-29T10:07:44;99523.61;;;22.79;43.04
59939;BME280;45801;51.810;19.444;2022-07-29T10:10:24;99523.42;;;22.79;44.73
59939;BME280;45801;51.810;19.444;2022-07-29T10:13:02;99516.63;;;22.81;44.68
59939;BME280;45801;51.810;19.444;2022-07-29T10:15:31;99515.56;;;22.84;44.98
59939;BME280;45801;51.810;19.444;2022-07-29T10:17:59;99512.70;;;22.85;43.73
59939;BME280;45801;51.810;19.444;2022-07-29T10:20:27;99516.45;;;22.89;44.08
59939;BME280;45801;51.810;19.444;2022-07-29T10:22:54;99512.14;;;22.96;45.17
59939;BME280;45801;51.810;19.444;2022-07-29T10:25:23;99504.27;;;23.04;44.22
59939;BME280;45801;51.810;19.444;2022-07-29T10:27:50;99512.13;;;23.13;45.16
59939;BME280;45801;51.810;19.444;2022-07-29T10:30:19;99513.71;;;23.19;43.71
59939;BME280;45801;51.810;19.444;2022-07-29T10:36:00;99513.33;;;23.30;43.45
59939;BME280;45801;51.810;19.444;2022-07-29T10:44:21;99505.23;;;23.42;41.62
59939;BME280;45801;51.810;19.444;2022-07-29T10:46:49;99505.04;;;23.45;42.43
59939;BME280;45801;51.810;19.444;2022-07-29T10:49:18;99500.73;;;23.49;42.64
59939;BME280;45801;51.810;19.444;2022-07-29T10:52:03;99498.21;;;23.52;42.81
59939;BME280;45801;51.810;19.444;2022-07-29T10:59:46;99495.63;;;23.64;43.06
59939;BME280;45801;51.810;19.444;2022-07-29T11:04:59;99487.91;;;23.69;41.59
59939;BME280;45801;51.810;19.444;2022-07-29T11:07:26;99483.30;;;23.65;41.03
59939;BME280;45801;51.810;19.444;2022-07-29T11:15:10;99475.48;;;23.56;42.34
59939;BME280;45801;51.810;19.444;2022-07-29T11:20:38;99482.30;;;23.51;41.81
59939;BME280;45801;51.810;19.444;2022-07-29T11:29:03;99474.99;;;23.47;41.72
59939;BME280;45801;51.810;19.444;2022-07-29T11:31:42;99474.79;;;23.52;41.86
59939;BME280;45801;51.810;19.444;2022-07-29T11:34:26;99469.05;;;23.55;41.20
59939;BME280;45801;51.810;19.444;2022-07-29T11:39:38;99474.06;;;23.53;41.79
59939;BME280;45801;51.810;19.444;2022-07-29T11:47:26;99486.57;;;23.55;42.17
59939;BME280;45801;51.810;19.444;2022-07-29T11:49:55;99484.91;;;23.64;42.51
59939;BME280;45801;51.810;19.444;2022-07-29T11:52:23;99487.36;;;23.73;41.70
59939;BME280;45801;51.810;19.444;2022-07-29T11:54:50;99479.46;;;23.78;41.05
59939;BME280;45801;51.810;19.444;2022-07-29T11:57:18;99478.91;;;23.81;41.63
59939;BME280;45801;51.810;19.444;2022-07-29T11:59:46;99476.23;;;23.87;42.22
59939;BME280;45801;51.810;19.444;2022-07-29T12:02:14;99478.32;;;23.92;42.06
59939;BME280;45801;51.810;19.444;2022-07-29T12:04:52;99479.73;;;23.95;42.20
59939;BME280;45801;51.810;19.444;2022-07-29T12:07:33;99481.33;;;23.99;42.15
59939;BME280;45801;51.810;19.444;2022-07-29T12:10:00;99481.45;;;24.05;42.51
59939;BME280;45801;51.810;19.444;2022-07-29T12:12:27;99471.76;;;24.09;41.46
59939;BME280;45801;51.810;19.444;2022-07-29T12:14:53;99469.95;;;24.13;41.46
59939;BME280;45801;51.810;19.444;2022-07-29T12:17:47;99465.26;;;24.16;41.79
59939;BME280;45801;51.810;19.444;2022-07-29T12:20:25;99462.53;;;24.22;41.28
59939;BME280;45801;51.810;19.444;2022-07-29T12:22:52;99459.47;;;24.25;41.12
59939;BME280;45801;51.810;19.444;2022-07-29T12:25:22;99454.05;;;24.28;41.68
59939;BME280;45801;51.810;19.444;2022-07-29T12:28:03;99450.27;;;24.32;40.74
59939;BME280;45801;51.810;19.444;2022-07-29T12:30:40;99448.09;;;24.37;41.12
59939;BME280;45801;51.810;19.444;2022-07-29T12:33:27;99447.89;;;24.39;40.11
59939;BME280;45801;51.810;19.444;2022-07-29T12:35:56;99448.27;;;24.37;40.15
59939;BME280;45801;51.810;19.444;2022-07-29T12:38:24;99452.38;;;24.35;40.53
59939;BME280;45801;51.810;19.444;2022-07-29T12:40:52;99449.55;;;24.33;41.04
59939;BME280;45801;51.810;19.444;2022-07-29T12:43:22;99448.13;;;24.31;41.69
59939;BME280;45801;51.810;19.444;2022-07-29T12:45:50;99443.49;;;24.30;40.02
59939;BME280;45801;51.810;19.444;2022-07-29T12:48:38;99443.50;;;24.28;40.91
59939;BME280;45801;51.810;19.444;2022-07-29T12:51:06;99441.74;;;24.26;40.77
59939;BME280;45801;51.810;19.444;2022-07-29T12:53:35;99431.73;;;24.23;41.71
59939;BME280;45801;51.810;19.444;2022-07-29T12:56:03;99424.39;;;24.24;42.21
59939;BME280;45801;51.810;19.444;2022-07-29T12:58:34;99428.50;;;24.24;42.48
59939;BME280;45801;51.810;19.444;2022-07-29T13:01:03;99425.83;;;24.25;42.08
59939;BME280;45801;51.810;19.444;2022-07-29T13:03:56;99425.09;;;24.26;41.92
59939;BME280;45801;51.810;19.444;2022-07-29T13:06:36;99423.30;;;24.25;41.83
59939;BME280;45801;51.810;19.444;2022-07-29T13:09:05;99423.48;;;24.26;42.20
59939;BME280;45801;51.810;19.444;2022-07-29T13:11:34;99422.56;;;24.28;41.61
59939;BME280;45801;51.810;19.444;2022-07-29T13:14:01;99425.40;;;24.31;41.48
59939;BME280;45801;51.810;19.444;2022-07-29T13:16:27;99420.90;;;24.34;41.39
59939;BME280;45801;51.810;19.444;2022-07-29T13:21:31;99418.88;;;24.40;42.43
59939;BME280;45801;51.810;19.444;2022-07-29T13:23:57;99420.83;;;24.41;42.80
59939;BME280;45801;51.810;19.444;2022-07-29T13:26:23;99418.69;;;24.41;42.48
59939;BME280;45801;51.810;19.444;2022-07-29T13:28:50;99416.70;;;24.43;41.61
59939;BME280;45801;51.810;19.444;2022-07-29T13:31:16;99416.85;;;24.45;42.00
59939;BME280;45801;51.810;19.444;2022-07-29T13:33:42;99416.88;;;24.43;41.35
59939;BME280;45801;51.810;19.444;2022-07-29T13:36:09;99415.48;;;24.39;42.05
59939;BME280;45801;51.810;19.444;2022-07-29T13:38:35;99414.62;;;24.35;41.67
59939;BME280;45801;51.810;19.444;2022-07-29T13:41:02;99408.02;;;24.32;41.49
59939;BME280;45801;51.810;19.444;2022-07-29T13:43:28;99406.61;;;24.31;42.43
59939;BME280;45801;51.810;19.444;2022-07-29T13:45:54;99408.02;;;24.32;42.89
59939;BME280;45801;51.810;19.444;2022-07-29T13:48:21;99404.64;;;24.30;42.42
59939;BME280;45801;51.810;19.444;2022-07-29T13:50:47;99404.50;;;24.27;42.92
59939;BME280;45801;51.810;19.444;2022-07-29T13:53:14;99407.20;;;24.25;42.27
59939;BME280;45801;51.810;19.444;2022-07-29T13:55:40;99405.99;;;24.21;42.76